sensor_id;sensor_type;location;lat;lon;timestamp;P1;durP1;ratioP1;P2;durP2;ratioP2
25868;SDS011;13688;53.154;18.136;2024-02-21T00:02:27;28.92;;;8.38;;
25868;SDS011;13688;53.154;18.136;2024-02-21T00:07:50;24.37;;;6.87;;
25868;SDS011;13688;53.154;18.136;2024-02-21T00:13:13;20.55;;;6.67;;
25868;SDS011;13688;53.154;18.136;2024-02-21T00:18:36;22.02;;;6.25;;
25868;SDS011;13688;53.154;18.136;2024-02-21T00:23:59;17.52;;;6.35;;
25868;SDS011;13688;53.154;18.136;2024-02-21T00:29:22;19.55;;;5.75;;
25868;SDS011;13688;53.154;18.136;2024-02-21T00:34:44;20.62;;;7.62;;
25868;SDS011;13688;53.154;18.136;2024-02-21T00:40:07;17.92;;;6.67;;
25868;SDS011;13688;53.154;18.136;2024-02-21T00:45:29;23.60;;;6.75;;
25868;SDS011;13688;53.154;18.136;2024-02-21T00:50:52;18.92;;;6.70;;
25868;SDS011;13688;53.154;18.136;2024-02-21T00:56:14;20.45;;;6.33;;
25868;SDS011;13688;53.154;18.136;2024-02-21T01:01:37;22.93;;;7.03;;
25868;SDS011;13688;53.154;18.136;2024-02-21T01:06:59;21.02;;;6.70;;
25868;SDS011;13688;53.154;18.136;2024-02-21T01:12:22;20.08;;;6.60;;
25868;SDS011;13688;53.154;18.136;2024-02-21T01:17:44;20.95;;;6.75;;
25868;SDS011;13688;53.154;18.136;2024-02-21T01:23:09;26.73;;;7.08;;
25868;SDS011;13688;53.154;18.136;2024-02-21T01:28:31;20.55;;;6.87;;
25868;SDS011;13688;53.154;18.136;2024-02-21T01:33:54;22.77;;;6.95;;
25868;SDS011;13688;53.154;18.136;2024-02-21T01:39:17;21.93;;;6.92;;
25868;SDS011;13688;53.154;18.136;2024-02-21T01:44:40;25.30;;;7.17;;
25868;SDS011;13688;53.154;18.136;2024-02-21T01:50:02;29.02;;;7.33;;
25868;SDS011;13688;53.154;18.136;2024-02-21T01:55:25;27.87;;;6.92;;
25868;SDS011;13688;53.154;18.136;2024-02-21T02:00:49;25.40;;;7.42;;
25868;SDS011;13688;53.154;18.136;2024-02-21T02:06:13;27.07;;;7.45;;
25868;SDS011;13688;53.154;18.136;2024-02-21T02:11:37;20.60;;;6.60;;
25868;SDS011;13688;53.154;18.136;2024-02-21T02:17:02;28.00;;;8.50;;
25868;SDS011;13688;53.154;18.136;2024-02-21T02:22:30;33.15;;;8.38;;
25868;SDS011;13688;53.154;18.136;2024-02-21T02:27:55;31.23;;;8.80;;
25868;SDS011;13688;53.154;18.136;2024-02-21T02:33:19;33.40;;;8.80;;
25868;SDS011;13688;53.154;18.136;2024-02-21T02:38:41;28.30;;;8.80;;
25868;SDS011;13688;53.154;18.136;2024-02-21T02:44:04;26.27;;;8.10;;
25868;SDS011;13688;53.154;18.136;2024-02-21T02:49:26;32.35;;;9.35;;
25868;SDS011;13688;53.154;18.136;2024-02-21T02:54:49;28.52;;;8.78;;
25868;SDS011;13688;53.154;18.136;2024-02-21T03:00:11;33.10;;;9.23;;
25868;SDS011;13688;53.154;18.136;2024-02-21T03:05:34;26.57;;;9.05;;
25868;SDS011;13688;53.154;18.136;2024-02-21T03:10:57;31.30;;;8.28;;
25868;SDS011;13688;53.154;18.136;2024-02-21T03:16:20;38.90;;;9.63;;
25868;SDS011;13688;53.154;18.136;2024-02-21T03:21:43;32.90;;;9.63;;
25868;SDS011;13688;53.154;18.136;2024-02-21T03:27:06;28.87;;;9.10;;
25868;SDS011;13688;53.154;18.136;2024-02-21T03:32:28;27.42;;;8.03;;
25868;SDS011;13688;53.154;18.136;2024-02-21T03:37:53;37.88;;;9.65;;
25868;SDS011;13688;53.154;18.136;2024-02-21T03:43:15;31.93;;;8.95;;
25868;SDS011;13688;53.154;18.136;2024-02-21T03:48:38;31.60;;;8.95;;
25868;SDS011;13688;53.154;18.136;2024-02-21T03:54:00;35.38;;;9.43;;
25868;SDS011;13688;53.154;18.136;2024-02-21T03:59:23;30.37;;;8.98;;
25868;SDS011;13688;53.154;18.136;2024-02-21T04:04:47;24.10;;;8.28;;
25868;SDS011;13688;53.154;18.136;2024-02-21T04:10:09;26.75;;;8.10;;
25868;SDS011;13688;53.154;18.136;2024-02-21T04:15:32;27.55;;;7.72;;
25868;SDS011;13688;53.154;18.136;2024-02-21T04:20:55;23.40;;;7.87;;
25868;SDS011;13688;53.154;18.136;2024-02-21T04:26:19;31.93;;;8.95;;
25868;SDS011;13688;53.154;18.136;2024-02-21T04:31:41;21.82;;;7.72;;
25868;SDS011;13688;53.154;18.136;2024-02-21T04:37:04;21.05;;;7.55;;
25868;SDS011;13688;53.154;18.136;2024-02-21T04:42:27;26.95;;;8.13;;
25868;SDS011;13688;53.154;18.136;2024-02-21T04:47:49;23.05;;;7.45;;
25868;SDS011;13688;53.154;18.136;2024-02-21T04:53:12;27.37;;;8.48;;
25868;SDS011;13688;53.154;18.136;2024-02-21T04:58:38;18.40;;;6.92;;
25868;SDS011;13688;53.154;18.136;2024-02-21T05:04:01;26.35;;;8.05;;
25868;SDS011;13688;53.154;18.136;2024-02-21T05:09:25;15.90;;;7.08;;
25868;SDS011;13688;53.154;18.136;2024-02-21T05:14:48;21.10;;;7.28;;
25868;SDS011;13688;53.154;18.136;2024-02-21T05:20:10;18.05;;;6.83;;
25868;SDS011;13688;53.154;18.136;2024-02-21T05:25:34;23.05;;;6.85;;
25868;SDS011;13688;53.154;18.136;2024-02-21T05:30:57;21.85;;;7.12;;
25868;SDS011;13688;53.154;18.136;2024-02-21T05:36:19;17.62;;;6.58;;
25868;SDS011;13688;53.154;18.136;2024-02-21T05:41:42;16.00;;;6.37;;
25868;SDS011;13688;53.154;18.136;2024-02-21T05:47:05;18.25;;;6.95;;
25868;SDS011;13688;53.154;18.136;2024-02-21T05:52:28;25.90;;;8.08;;
25868;SDS011;13688;53.154;18.136;2024-02-21T05:57:53;25.72;;;8.03;;
25868;SDS011;13688;53.154;18.136;2024-02-21T06:03:16;22.00;;;7.70;;
25868;SDS011;13688;53.154;18.136;2024-02-21T06:08:51;25.30;;;7.70;;
25868;SDS011;13688;53.154;18.136;2024-02-21T06:14:13;24.43;;;8.63;;
25868;SDS011;13688;53.154;18.136;2024-02-21T06:19:36;26.93;;;9.43;;
25868;SDS011;13688;53.154;18.136;2024-02-21T06:25:00;26.93;;;9.30;;
25868;SDS011;13688;53.154;18.136;2024-02-21T06:30:23;25.07;;;8.63;;
25868;SDS011;13688;53.154;18.136;2024-02-21T06:35:46;23.87;;;9.10;;
25868;SDS011;13688;53.154;18.136;2024-02-21T06:41:19;23.37;;;8.97;;
25868;SDS011;13688;53.154;18.136;2024-02-21T06:46:39;26.63;;;8.87;;
25868;SDS011;13688;53.154;18.136;2024-02-21T06:52:04;32.80;;;10.97;;
25868;SDS011;13688;53.154;18.136;2024-02-21T06:57:30;38.47;;;10.17;;
25868;SDS011;13688;53.154;18.136;2024-02-21T07:02:53;27.00;;;10.40;;
25868;SDS011;13688;53.154;18.136;2024-02-21T07:08:15;32.70;;;11.30;;
25868;SDS011;13688;53.154;18.136;2024-02-21T07:13:38;29.35;;;11.05;;
25868;SDS011;13688;53.154;18.136;2024-02-21T07:19:01;28.83;;;9.83;;
25868;SDS011;13688;53.154;18.136;2024-02-21T07:24:24;34.67;;;10.15;;
25868;SDS011;13688;53.154;18.136;2024-02-21T07:29:46;40.27;;;10.50;;
25868;SDS011;13688;53.154;18.136;2024-02-21T07:35:08;31.03;;;10.33;;
25868;SDS011;13688;53.154;18.136;2024-02-21T07:40:31;31.50;;;10.80;;
25868;SDS011;13688;53.154;18.136;2024-02-21T07:45:56;32.50;;;9.10;;
25868;SDS011;13688;53.154;18.136;2024-02-21T07:51:19;25.70;;;9.93;;
25868;SDS011;13688;53.154;18.136;2024-02-21T07:56:43;29.50;;;9.70;;
25868;SDS011;13688;53.154;18.136;2024-02-21T08:02:06;28.30;;;8.98;;
25868;SDS011;13688;53.154;18.136;2024-02-21T08:07:30;22.27;;;9.37;;
25868;SDS011;13688;53.154;18.136;2024-02-21T08:12:53;28.80;;;9.55;;
25868;SDS011;13688;53.154;18.136;2024-02-21T08:18:15;24.65;;;7.72;;
25868;SDS011;13688;53.154;18.136;2024-02-21T08:23:50;22.67;;;8.27;;
25868;SDS011;13688;53.154;18.136;2024-02-21T08:29:12;25.77;;;9.20;;
25868;SDS011;13688;53.154;18.136;2024-02-21T08:34:36;24.13;;;9.37;;
25868;SDS011;13688;53.154;18.136;2024-02-21T08:39:58;24.70;;;8.07;;
25868;SDS011;13688;53.154;18.136;2024-02-21T08:45:25;24.03;;;8.90;;
25868;SDS011;13688;53.154;18.136;2024-02-21T08:50:47;22.90;;;8.27;;
25868;SDS011;13688;53.154;18.136;2024-02-21T08:56:10;26.97;;;7.77;;
25868;SDS011;13688;53.154;18.136;2024-02-21T09:01:33;24.35;;;7.75;;
25868;SDS011;13688;53.154;18.136;2024-02-21T09:06:57;20.87;;;8.30;;
25868;SDS011;13688;53.154;18.136;2024-02-21T09:12:20;21.70;;;8.23;;
25868;SDS011;13688;53.154;18.136;2024-02-21T09:17:43;23.32;;;9.13;;
25868;SDS011;13688;53.154;18.136;2024-02-21T09:23:06;15.93;;;7.50;;
25868;SDS011;13688;53.154;18.136;2024-02-21T09:28:29;21.70;;;8.38;;
25868;SDS011;13688;53.154;18.136;2024-02-21T09:33:52;20.25;;;8.20;;
25868;SDS011;13688;53.154;18.136;2024-02-21T09:39:15;20.75;;;8.33;;
25868;SDS011;13688;53.154;18.136;2024-02-21T09:44:37;16.90;;;8.45;;
25868;SDS011;13688;53.154;18.136;2024-02-21T09:50:02;17.90;;;8.27;;
25868;SDS011;13688;53.154;18.136;2024-02-21T09:55:26;25.33;;;8.27;;
25868;SDS011;13688;53.154;18.136;2024-02-21T10:00:51;23.30;;;8.10;;
25868;SDS011;13688;53.154;18.136;2024-02-21T10:06:15;22.13;;;7.80;;
25868;SDS011;13688;53.154;18.136;2024-02-21T10:11:38;16.48;;;7.65;;
25868;SDS011;13688;53.154;18.136;2024-02-21T10:17:01;21.62;;;7.97;;
25868;SDS011;13688;53.154;18.136;2024-02-21T10:22:26;16.52;;;7.05;;
25868;SDS011;13688;53.154;18.136;2024-02-21T10:27:49;19.17;;;7.87;;
25868;SDS011;13688;53.154;18.136;2024-02-21T10:33:12;15.35;;;7.35;;
25868;SDS011;13688;53.154;18.136;2024-02-21T10:38:39;19.45;;;7.20;;
25868;SDS011;13688;53.154;18.136;2024-02-21T10:44:02;15.80;;;7.65;;
25868;SDS011;13688;53.154;18.136;2024-02-21T10:49:27;16.95;;;7.78;;
25868;SDS011;13688;53.154;18.136;2024-02-21T10:55:04;18.60;;;8.40;;
25868;SDS011;13688;53.154;18.136;2024-02-21T11:00:40;21.65;;;8.03;;
25868;SDS011;13688;53.154;18.136;2024-02-21T11:06:03;18.40;;;7.43;;
25868;SDS011;13688;53.154;18.136;2024-02-21T11:11:28;18.07;;;8.40;;
25868;SDS011;13688;53.154;18.136;2024-02-21T11:16:53;14.47;;;7.87;;
25868;SDS011;13688;53.154;18.136;2024-02-21T11:22:40;14.77;;;7.90;;
25868;SDS011;13688;53.154;18.136;2024-02-21T11:28:03;15.33;;;8.43;;
25868;SDS011;13688;53.154;18.136;2024-02-21T11:33:24;15.18;;;7.58;;
25868;SDS011;13688;53.154;18.136;2024-02-21T11:38:48;16.10;;;8.43;;
25868;SDS011;13688;53.154;18.136;2024-02-21T11:44:15;18.40;;;8.48;;
25868;SDS011;13688;53.154;18.136;2024-02-21T11:49:38;17.20;;;8.00;;
25868;SDS011;13688;53.154;18.136;2024-02-21T11:55:03;12.03;;;7.72;;
25868;SDS011;13688;53.154;18.136;2024-02-21T12:00:26;20.48;;;8.75;;
25868;SDS011;13688;53.154;18.136;2024-02-21T12:05:48;14.20;;;7.40;;
25868;SDS011;13688;53.154;18.136;2024-02-21T12:11:25;17.98;;;7.60;;
25868;SDS011;13688;53.154;18.136;2024-02-21T12:16:44;15.80;;;7.03;;
25868;SDS011;13688;53.154;18.136;2024-02-21T12:22:19;14.20;;;7.50;;
25868;SDS011;13688;53.154;18.136;2024-02-21T12:27:42;17.25;;;7.65;;
25868;SDS011;13688;53.154;18.136;2024-02-21T12:33:05;14.53;;;7.53;;
25868;SDS011;13688;53.154;18.136;2024-02-21T12:38:28;16.87;;;7.67;;
25868;SDS011;13688;53.154;18.136;2024-02-21T12:43:52;13.67;;;7.20;;
25868;SDS011;13688;53.154;18.136;2024-02-21T12:49:16;14.53;;;7.73;;
25868;SDS011;13688;53.154;18.136;2024-02-21T12:54:39;14.90;;;7.40;;
25868;SDS011;13688;53.154;18.136;2024-02-21T13:00:02;12.60;;;7.40;;
25868;SDS011;13688;53.154;18.136;2024-02-21T13:05:28;15.47;;;7.93;;
25868;SDS011;13688;53.154;18.136;2024-02-21T13:10:52;17.20;;;8.23;;
25868;SDS011;13688;53.154;18.136;2024-02-21T13:16:14;16.48;;;8.40;;
25868;SDS011;13688;53.154;18.136;2024-02-21T13:21:41;21.57;;;8.67;;
25868;SDS011;13688;53.154;18.136;2024-02-21T13:27:04;15.63;;;7.62;;
25868;SDS011;13688;53.154;18.136;2024-02-21T13:32:26;15.50;;;8.55;;
25868;SDS011;13688;53.154;18.136;2024-02-21T13:37:59;16.57;;;8.07;;
25868;SDS011;13688;53.154;18.136;2024-02-21T13:43:23;15.20;;;7.43;;
25868;SDS011;13688;53.154;18.136;2024-02-21T13:48:45;17.93;;;8.83;;
25868;SDS011;13688;53.154;18.136;2024-02-21T13:54:13;16.47;;;9.53;;
25868;SDS011;13688;53.154;18.136;2024-02-21T13:59:35;16.30;;;9.03;;
25868;SDS011;13688;53.154;18.136;2024-02-21T14:04:58;17.80;;;8.70;;
25868;SDS011;13688;53.154;18.136;2024-02-21T14:10:21;15.73;;;8.77;;
25868;SDS011;13688;53.154;18.136;2024-02-21T14:15:44;16.73;;;8.90;;
25868;SDS011;13688;53.154;18.136;2024-02-21T14:21:06;16.90;;;9.37;;
25868;SDS011;13688;53.154;18.136;2024-02-21T14:26:30;16.97;;;9.60;;
25868;SDS011;13688;53.154;18.136;2024-02-21T14:31:52;18.27;;;10.03;;
25868;SDS011;13688;53.154;18.136;2024-02-21T14:37:15;17.90;;;9.98;;
25868;SDS011;13688;53.154;18.136;2024-02-21T14:42:38;18.05;;;10.10;;
25868;SDS011;13688;53.154;18.136;2024-02-21T14:48:00;18.23;;;9.95;;
25868;SDS011;13688;53.154;18.136;2024-02-21T14:53:25;18.55;;;9.68;;
25868;SDS011;13688;53.154;18.136;2024-02-21T14:58:47;18.00;;;11.05;;
25868;SDS011;13688;53.154;18.136;2024-02-21T15:04:11;19.70;;;10.47;;
25868;SDS011;13688;53.154;18.136;2024-02-21T15:09:35;18.15;;;10.13;;
25868;SDS011;13688;53.154;18.136;2024-02-21T15:14:58;21.00;;;9.45;;
25868;SDS011;13688;53.154;18.136;2024-02-21T15:20:21;18.57;;;9.55;;
25868;SDS011;13688;53.154;18.136;2024-02-21T15:25:44;20.17;;;10.82;;
25868;SDS011;13688;53.154;18.136;2024-02-21T15:31:06;19.17;;;9.03;;
25868;SDS011;13688;53.154;18.136;2024-02-21T15:36:33;17.90;;;10.38;;
25868;SDS011;13688;53.154;18.136;2024-02-21T15:41:56;18.40;;;11.10;;
25868;SDS011;13688;53.154;18.136;2024-02-21T15:47:19;18.57;;;9.60;;
25868;SDS011;13688;53.154;18.136;2024-02-21T15:52:42;15.98;;;10.25;;
25868;SDS011;13688;53.154;18.136;2024-02-21T15:58:06;21.23;;;12.27;;
25868;SDS011;13688;53.154;18.136;2024-02-21T16:03:28;24.57;;;11.17;;
25868;SDS011;13688;53.154;18.136;2024-02-21T16:08:52;22.50;;;12.58;;
25868;SDS011;13688;53.154;18.136;2024-02-21T16:14:14;24.52;;;11.30;;
25868;SDS011;13688;53.154;18.136;2024-02-21T16:19:37;25.25;;;11.78;;
25868;SDS011;13688;53.154;18.136;2024-02-21T16:25:00;26.00;;;10.75;;
25868;SDS011;13688;53.154;18.136;2024-02-21T16:30:22;24.63;;;10.70;;
25868;SDS011;13688;53.154;18.136;2024-02-21T16:35:46;20.27;;;10.65;;
25868;SDS011;13688;53.154;18.136;2024-02-21T16:41:11;25.20;;;10.97;;
25868;SDS011;13688;53.154;18.136;2024-02-21T16:46:34;22.55;;;11.53;;
25868;SDS011;13688;53.154;18.136;2024-02-21T16:51:57;25.07;;;12.40;;
25868;SDS011;13688;53.154;18.136;2024-02-21T16:57:20;24.55;;;12.07;;
25868;SDS011;13688;53.154;18.136;2024-02-21T17:02:42;23.17;;;12.60;;
25868;SDS011;13688;53.154;18.136;2024-02-21T17:08:06;27.82;;;12.60;;
25868;SDS011;13688;53.154;18.136;2024-02-21T17:13:29;22.77;;;12.33;;
25868;SDS011;13688;53.154;18.136;2024-02-21T17:18:52;22.58;;;11.38;;
25868;SDS011;13688;53.154;18.136;2024-02-21T17:24:15;28.10;;;10.80;;
25868;SDS011;13688;53.154;18.136;2024-02-21T17:29:38;25.80;;;11.53;;
25868;SDS011;13688;53.154;18.136;2024-02-21T17:35:00;19.70;;;11.37;;
25868;SDS011;13688;53.154;18.136;2024-02-21T17:40:24;21.42;;;11.03;;
25868;SDS011;13688;53.154;18.136;2024-02-21T17:45:47;22.70;;;11.08;;
25868;SDS011;13688;53.154;18.136;2024-02-21T17:51:11;22.50;;;11.03;;
25868;SDS011;13688;53.154;18.136;2024-02-21T17:56:34;18.57;;;9.75;;
25868;SDS011;13688;53.154;18.136;2024-02-21T18:01:56;22.40;;;9.70;;
25868;SDS011;13688;53.154;18.136;2024-02-21T18:07:21;18.17;;;9.57;;
25868;SDS011;13688;53.154;18.136;2024-02-21T18:12:43;18.17;;;9.43;;
25868;SDS011;13688;53.154;18.136;2024-02-21T18:18:07;18.85;;;8.53;;
25868;SDS011;13688;53.154;18.136;2024-02-21T18:23:30;21.52;;;9.75;;
25868;SDS011;13688;53.154;18.136;2024-02-21T18:28:52;20.02;;;9.13;;
25868;SDS011;13688;53.154;18.136;2024-02-21T18:34:17;20.40;;;9.57;;
25868;SDS011;13688;53.154;18.136;2024-02-21T18:39:40;20.23;;;9.38;;
25868;SDS011;13688;53.154;18.136;2024-02-21T18:45:03;24.52;;;9.20;;
25868;SDS011;13688;53.154;18.136;2024-02-21T18:50:26;22.25;;;9.03;;
25868;SDS011;13688;53.154;18.136;2024-02-21T18:55:49;17.30;;;8.90;;
25868;SDS011;13688;53.154;18.136;2024-02-21T19:01:12;22.80;;;9.20;;
25868;SDS011;13688;53.154;18.136;2024-02-21T19:06:35;16.60;;;8.20;;
25868;SDS011;13688;53.154;18.136;2024-02-21T19:11:58;16.87;;;8.18;;
25868;SDS011;13688;53.154;18.136;2024-02-21T19:17:22;23.15;;;8.78;;
25868;SDS011;13688;53.154;18.136;2024-02-21T19:22:45;22.13;;;8.60;;
25868;SDS011;13688;53.154;18.136;2024-02-21T19:28:08;17.80;;;8.38;;
25868;SDS011;13688;53.154;18.136;2024-02-21T19:33:32;19.70;;;8.20;;
25868;SDS011;13688;53.154;18.136;2024-02-21T19:38:55;16.93;;;7.83;;
25868;SDS011;13688;53.154;18.136;2024-02-21T19:44:18;23.07;;;9.13;;
25868;SDS011;13688;53.154;18.136;2024-02-21T19:49:41;17.25;;;8.35;;
25868;SDS011;13688;53.154;18.136;2024-02-21T19:55:05;20.00;;;8.43;;
25868;SDS011;13688;53.154;18.136;2024-02-21T20:00:27;19.57;;;9.08;;
25868;SDS011;13688;53.154;18.136;2024-02-21T20:05:50;16.65;;;8.60;;
25868;SDS011;13688;53.154;18.136;2024-02-21T20:11:12;19.92;;;9.10;;
25868;SDS011;13688;53.154;18.136;2024-02-21T20:16:35;18.17;;;9.50;;
25868;SDS011;13688;53.154;18.136;2024-02-21T20:21:57;22.73;;;9.90;;
25868;SDS011;13688;53.154;18.136;2024-02-21T20:27:22;16.93;;;8.25;;
25868;SDS011;13688;53.154;18.136;2024-02-21T20:32:45;26.67;;;10.37;;
25868;SDS011;13688;53.154;18.136;2024-02-21T20:38:08;20.75;;;10.25;;
25868;SDS011;13688;53.154;18.136;2024-02-21T20:43:30;22.60;;;10.88;;
25868;SDS011;13688;53.154;18.136;2024-02-21T20:48:54;17.30;;;9.53;;
25868;SDS011;13688;53.154;18.136;2024-02-21T20:54:17;23.85;;;10.25;;
25868;SDS011;13688;53.154;18.136;2024-02-21T20:59:39;21.95;;;10.75;;
25868;SDS011;13688;53.154;18.136;2024-02-21T21:05:02;26.10;;;11.43;;
25868;SDS011;13688;53.154;18.136;2024-02-21T21:10:27;21.42;;;10.65;;
25868;SDS011;13688;53.154;18.136;2024-02-21T21:15:50;26.77;;;12.00;;
25868;SDS011;13688;53.154;18.136;2024-02-21T21:21:12;25.43;;;11.33;;
25868;SDS011;13688;53.154;18.136;2024-02-21T21:26:35;23.38;;;12.58;;
25868;SDS011;13688;53.154;18.136;2024-02-21T21:31:59;28.65;;;12.15;;
25868;SDS011;13688;53.154;18.136;2024-02-21T21:37:22;27.80;;;12.03;;
25868;SDS011;13688;53.154;18.136;2024-02-21T21:42:54;20.77;;;11.83;;
25868;SDS011;13688;53.154;18.136;2024-02-21T21:48:17;21.83;;;11.23;;
25868;SDS011;13688;53.154;18.136;2024-02-21T21:53:40;23.63;;;11.93;;
25868;SDS011;13688;53.154;18.136;2024-02-21T21:59:03;25.77;;;11.57;;
25868;SDS011;13688;53.154;18.136;2024-02-21T22:04:26;25.23;;;11.73;;
25868;SDS011;13688;53.154;18.136;2024-02-21T22:09:50;26.43;;;12.07;;
25868;SDS011;13688;53.154;18.136;2024-02-21T22:15:13;22.57;;;12.30;;
25868;SDS011;13688;53.154;18.136;2024-02-21T22:20:36;29.10;;;12.00;;
25868;SDS011;13688;53.154;18.136;2024-02-21T22:25:58;27.20;;;12.93;;
25868;SDS011;13688;53.154;18.136;2024-02-21T22:31:22;26.13;;;12.80;;
25868;SDS011;13688;53.154;18.136;2024-02-21T22:36:45;22.85;;;11.57;;
25868;SDS011;13688;53.154;18.136;2024-02-21T22:42:08;29.02;;;12.47;;
25868;SDS011;13688;53.154;18.136;2024-02-21T22:47:31;26.07;;;12.45;;
25868;SDS011;13688;53.154;18.136;2024-02-21T22:52:53;22.77;;;12.37;;
25868;SDS011;13688;53.154;18.136;2024-02-21T22:58:16;26.25;;;11.95;;
25868;SDS011;13688;53.154;18.136;2024-02-21T23:03:38;27.40;;;12.77;;
25868;SDS011;13688;53.154;18.136;2024-02-21T23:09:01;24.30;;;13.23;;
25868;SDS011;13688;53.154;18.136;2024-02-21T23:14:23;26.63;;;13.67;;
25868;SDS011;13688;53.154;18.136;2024-02-21T23:19:47;28.53;;;15.00;;
25868;SDS011;13688;53.154;18.136;2024-02-21T23:25:11;26.62;;;14.33;;
25868;SDS011;13688;53.154;18.136;2024-02-21T23:30:34;29.37;;;14.78;;
25868;SDS011;13688;53.154;18.136;2024-02-21T23:35:56;25.15;;;14.03;;
25868;SDS011;13688;53.154;18.136;2024-02-21T23:41:19;24.13;;;14.73;;
25868;SDS011;13688;53.154;18.136;2024-02-21T23:46:41;24.45;;;14.45;;
25868;SDS011;13688;53.154;18.136;2024-02-21T23:52:04;27.40;;;13.83;;
25868;SDS011;13688;53.154;18.136;2024-02-21T23:57:28;26.40;;;13.73;;
